createdAt,value
2023-04-16T00:01:32.605Z,3.72
2023-04-16T00:03:59.466Z,3.47
2023-04-16T00:06:26.054Z,3.67
2023-04-16T00:08:52.461Z,4.50
2023-04-16T00:11:18.768Z,3.60
2023-04-16T00:13:45.169Z,3.58
2023-04-16T00:16:11.561Z,4.10
2023-04-16T00:18:37.926Z,4.10
2023-04-16T00:21:04.340Z,4.30
2023-04-16T00:23:31.052Z,4.65
2023-04-16T00:25:59.786Z,4.97
2023-04-16T00:28:27.567Z,5.25
2023-04-16T00:30:54.327Z,3.78
2023-04-16T00:33:20.980Z,4.65
2023-04-16T00:35:47.975Z,5.90
2023-04-16T00:38:14.414Z,5.65
2023-04-16T00:40:40.815Z,4.65
2023-04-16T00:43:07.254Z,5.63
2023-04-16T00:45:33.632Z,6.60
2023-04-16T00:48:00.757Z,4.38
2023-04-16T00:50:27.497Z,5.10
2023-04-16T00:52:53.860Z,4.55
2023-04-16T00:55:21.342Z,5.22
2023-04-16T00:57:48.023Z,6.63
2023-04-16T01:00:14.500Z,7.13
2023-04-16T01:02:41.137Z,5.88
2023-04-16T01:05:08.322Z,6.25
2023-04-16T01:07:34.713Z,5.97
2023-04-16T01:10:01.249Z,6.07
2023-04-16T01:12:27.625Z,5.93
2023-04-16T01:14:54.021Z,5.88
2023-04-16T01:17:20.478Z,6.20
2023-04-16T01:19:46.823Z,5.90
2023-04-16T01:22:13.184Z,7.88
2023-04-16T01:24:40.332Z,6.85
2023-04-16T01:27:09.824Z,6.65
2023-04-16T01:29:36.205Z,6.40
2023-04-16T01:32:02.678Z,6.70
2023-04-16T01:34:33.951Z,5.63
2023-04-16T01:37:00.359Z,7.28
2023-04-16T01:39:27.206Z,7.20
2023-04-16T01:41:53.622Z,7.30
2023-04-16T01:44:20.206Z,6.43
2023-04-16T01:46:46.650Z,4.95
2023-04-16T01:49:13.068Z,7.32
2023-04-16T01:51:39.404Z,7.88
2023-04-16T01:54:05.950Z,6.85
2023-04-16T01:56:32.287Z,7.15
2023-04-16T01:58:58.818Z,7.82
2023-04-16T02:01:29.793Z,9.63
2023-04-16T02:03:57.325Z,8.52
2023-04-16T02:06:23.804Z,9.55
2023-04-16T02:08:50.258Z,8.80
2023-04-16T02:11:16.600Z,9.43
2023-04-16T02:13:43.435Z,7.88
2023-04-16T02:16:09.993Z,10.38
2023-04-16T02:18:47.234Z,9.18
2023-04-16T02:21:15.409Z,9.68
2023-04-16T02:23:42.811Z,9.68
2023-04-16T02:26:09.330Z,9.18
2023-04-16T02:28:37.053Z,10.93
2023-04-16T02:31:03.594Z,8.68
2023-04-16T02:33:37.172Z,9.15
2023-04-16T02:36:03.684Z,10.95
2023-04-16T02:38:30.094Z,10.40
2023-04-16T02:40:56.887Z,10.02
2023-04-16T02:43:23.272Z,11.30
2023-04-16T02:45:49.693Z,8.85
2023-04-16T02:48:16.192Z,9.98
2023-04-16T02:50:42.575Z,11.05
2023-04-16T02:53:10.501Z,10.70
2023-04-16T02:55:36.981Z,13.60
2023-04-16T02:58:03.455Z,11.95
2023-04-16T03:00:29.916Z,11.18
2023-04-16T03:02:56.511Z,12.48
2023-04-16T03:05:23.150Z,11.38
2023-04-16T03:07:56.353Z,13.30
2023-04-16T03:10:23.389Z,11.25
2023-04-16T03:12:49.881Z,12.40
2023-04-16T03:15:16.526Z,14.10
2023-04-16T03:17:42.992Z,14.80
2023-04-16T03:20:10.225Z,13.23
2023-04-16T03:22:36.660Z,13.30
2023-04-16T03:25:03.102Z,13.75
2023-04-16T03:27:31.140Z,12.85
2023-04-16T03:29:57.469Z,11.85
2023-04-16T03:32:24.605Z,12.15
2023-04-16T03:34:51.064Z,13.82
2023-04-16T03:37:17.472Z,11.35
2023-04-16T03:39:43.992Z,13.77
2023-04-16T03:42:11.466Z,10.85
2023-04-16T03:44:37.876Z,6.85
2023-04-16T03:47:04.241Z,10.98
2023-04-16T03:49:30.549Z,9.07
2023-04-16T03:51:58.073Z,11.65
2023-04-16T03:54:25.705Z,11.00
2023-04-16T03:57:02.429Z,12.50
2023-04-16T03:59:28.950Z,12.88
2023-04-16T04:01:55.397Z,12.80
2023-04-16T04:04:21.924Z,11.85
2023-04-16T04:06:48.382Z,12.52
2023-04-16T04:09:16.208Z,12.88
2023-04-16T04:11:43.158Z,13.73
2023-04-16T04:14:09.479Z,12.55
2023-04-16T04:16:35.909Z,11.65
2023-04-16T04:19:02.325Z,11.85
2023-04-16T04:21:29.233Z,11.00
2023-04-16T04:23:56.114Z,12.52
2023-04-16T04:26:22.798Z,11.75
2023-04-16T04:28:49.905Z,12.05
2023-04-16T04:31:17.413Z,11.73
2023-04-16T04:33:44.094Z,12.40
2023-04-16T04:36:10.469Z,13.45
2023-04-16T04:38:36.958Z,13.40
2023-04-16T04:41:03.863Z,13.40
2023-04-16T04:43:34.363Z,12.18
2023-04-16T04:46:01.340Z,14.07
2023-04-16T04:48:29.136Z,13.85
2023-04-16T04:50:55.966Z,13.25
2023-04-16T04:53:23.311Z,13.60
2023-04-16T04:55:53.226Z,12.68
2023-04-16T04:58:22.086Z,12.23
2023-04-16T05:00:48.499Z,12.50
2023-04-16T05:03:19.026Z,11.85
2023-04-16T05:05:45.440Z,12.93
2023-04-16T05:08:11.732Z,13.45
2023-04-16T05:10:38.121Z,10.60
2023-04-16T05:13:04.541Z,13.65
2023-04-16T05:15:31.019Z,13.68
2023-04-16T05:17:57.424Z,13.73
2023-04-16T05:20:24.310Z,11.15
2023-04-16T05:22:51.149Z,12.27
2023-04-16T05:25:17.707Z,8.23
2023-04-16T05:27:46.189Z,14.15
2023-04-16T05:30:12.714Z,13.57
2023-04-16T05:32:39.445Z,12.82
2023-04-16T05:35:06.294Z,11.60
2023-04-16T05:37:32.693Z,9.43
2023-04-16T05:39:59.121Z,13.57
2023-04-16T05:42:25.780Z,9.52
2023-04-16T05:44:52.706Z,10.75
2023-04-16T05:47:19.103Z,11.90
2023-04-16T05:49:45.617Z,13.05
2023-04-16T05:52:12.003Z,10.90
2023-04-16T05:54:38.401Z,11.48
2023-04-16T05:57:04.860Z,12.23
2023-04-16T05:59:31.275Z,12.90
2023-04-16T06:01:57.939Z,10.68
2023-04-16T06:04:24.338Z,14.07
2023-04-16T06:06:50.808Z,13.32
2023-04-16T06:09:18.191Z,14.60
2023-04-16T06:11:44.607Z,14.10
2023-04-16T06:14:11.151Z,13.98
2023-04-16T06:16:37.489Z,15.15
2023-04-16T06:19:03.848Z,14.55
2023-04-16T06:21:31.676Z,15.95
2023-04-16T06:23:58.109Z,14.77
2023-04-16T06:26:24.508Z,14.73
2023-04-16T06:28:53.213Z,15.07
2023-04-16T06:31:19.694Z,15.02
2023-04-16T06:33:46.097Z,16.10
2023-04-16T06:36:12.525Z,12.25
2023-04-16T06:38:38.911Z,15.63
2023-04-16T06:41:05.506Z,14.20
2023-04-16T06:43:33.410Z,16.77
2023-04-16T06:45:59.918Z,16.88
2023-04-16T06:48:26.815Z,16.05
2023-04-16T06:50:53.199Z,16.05
2023-04-16T06:53:19.588Z,13.05
2023-04-16T06:55:45.900Z,17.08
2023-04-16T06:58:12.352Z,17.50
2023-04-16T07:00:38.744Z,18.33
2023-04-16T07:03:05.757Z,19.40
2023-04-16T07:05:32.409Z,18.40
2023-04-16T07:07:59.038Z,19.23
2023-04-16T07:10:25.403Z,19.33
2023-04-16T07:12:51.824Z,20.05
2023-04-16T07:15:18.231Z,20.33
2023-04-16T07:17:44.606Z,18.13
2023-04-16T07:20:11.361Z,17.00
2023-04-16T07:22:37.802Z,17.88
2023-04-16T07:25:04.263Z,18.00
2023-04-16T07:27:30.754Z,16.65
2023-04-16T07:29:57.132Z,16.52
2023-04-16T07:32:24.026Z,15.50
2023-04-16T07:34:50.893Z,16.13
2023-04-16T07:37:18.356Z,16.33
2023-04-16T07:39:44.676Z,15.15
2023-04-16T07:42:11.327Z,14.80
2023-04-16T07:44:37.758Z,12.65
2023-04-16T07:47:05.585Z,15.85
2023-04-16T07:49:32.330Z,14.75
2023-04-16T07:51:58.702Z,15.82
2023-04-16T07:54:26.296Z,14.10
2023-04-16T07:56:53.689Z,15.45
2023-04-16T07:59:23.370Z,13.55
2023-04-16T08:01:50.746Z,11.95
2023-04-16T08:04:23.040Z,10.98
2023-04-16T08:06:50.239Z,11.88
2023-04-16T08:09:16.668Z,12.35
2023-04-16T08:11:42.995Z,11.68
2023-04-16T08:14:09.285Z,11.20
2023-04-16T08:16:35.815Z,8.80
2023-04-16T08:19:02.387Z,10.38
2023-04-16T08:21:29.328Z,9.68
2023-04-16T08:23:55.972Z,8.63
2023-04-16T08:26:22.393Z,9.02
2023-04-16T08:28:49.869Z,8.95
2023-04-16T08:31:16.241Z,9.57
2023-04-16T08:33:43.343Z,8.65
2023-04-16T08:36:09.885Z,8.73
2023-04-16T08:38:36.273Z,27.35
2023-04-16T08:41:03.747Z,11.70
2023-04-16T08:43:33.172Z,8.07
2023-04-16T08:46:00.493Z,6.43
2023-04-16T08:48:29.119Z,6.68
2023-04-16T08:50:55.791Z,7.38
2023-04-16T08:53:28.560Z,6.82
2023-04-16T08:55:57.901Z,7.15
2023-04-16T08:58:25.619Z,7.05
2023-04-16T09:00:52.124Z,6.22
2023-04-16T09:03:21.650Z,6.82
2023-04-16T09:05:49.407Z,6.57
2023-04-16T09:08:15.750Z,6.85
2023-04-16T09:10:43.124Z,6.78
2023-04-16T09:13:11.640Z,6.38
2023-04-16T09:15:39.045Z,7.10
2023-04-16T09:18:06.000Z,6.85
2023-04-16T09:20:32.315Z,5.28
2023-04-16T09:22:58.652Z,6.22
2023-04-16T09:25:25.162Z,7.63
2023-04-16T09:27:51.661Z,7.50
2023-04-16T09:30:23.866Z,7.50
2023-04-16T09:32:51.050Z,7.63
2023-04-16T09:35:20.554Z,7.07
2023-04-16T09:37:57.010Z,7.22
2023-04-16T09:40:27.354Z,7.55
2023-04-16T09:42:56.737Z,7.78
2023-04-16T09:45:23.213Z,8.70
2023-04-16T09:47:49.531Z,9.10
2023-04-16T09:50:18.287Z,9.32
2023-04-16T09:52:50.541Z,9.80
2023-04-16T09:55:17.000Z,8.93
2023-04-16T09:57:43.319Z,9.48
2023-04-16T10:00:10.278Z,8.25
2023-04-16T10:02:40.654Z,8.45
2023-04-16T10:05:07.178Z,9.32
2023-04-16T10:07:34.388Z,8.90
2023-04-16T10:10:01.098Z,11.55
2023-04-16T10:12:29.516Z,12.40
2023-04-16T10:14:55.957Z,12.05
2023-04-16T10:17:23.923Z,12.82
2023-04-16T10:19:51.032Z,10.90
2023-04-16T10:22:17.526Z,12.98
2023-04-16T10:24:43.915Z,10.55
2023-04-16T10:27:10.707Z,13.32
2023-04-16T10:29:37.467Z,12.15
2023-04-16T10:32:03.931Z,12.32
2023-04-16T10:34:31.276Z,11.57
2023-04-16T10:36:57.636Z,11.05
2023-04-16T10:39:25.030Z,11.20
2023-04-16T10:42:06.131Z,11.30
2023-04-16T10:44:33.002Z,10.13
2023-04-16T10:46:59.404Z,12.50
2023-04-16T10:49:26.342Z,10.98
2023-04-16T10:51:56.644Z,20.88
2023-04-16T10:54:26.350Z,13.77
2023-04-16T10:56:53.501Z,12.50
2023-04-16T10:59:20.829Z,9.80
2023-04-16T11:01:48.682Z,11.23
2023-04-16T11:04:21.559Z,10.85
2023-04-16T11:07:06.911Z,9.75
2023-04-16T11:09:42.379Z,10.73
2023-04-16T11:12:11.790Z,9.55
2023-04-16T11:14:38.741Z,9.45
2023-04-16T11:17:05.190Z,12.85
2023-04-16T11:19:31.505Z,10.50
2023-04-16T11:21:58.227Z,11.20
2023-04-16T11:24:26.218Z,12.23
2023-04-16T11:26:52.765Z,17.25
2023-04-16T11:29:19.304Z,12.88
2023-04-16T11:31:52.298Z,13.25
2023-04-16T11:34:19.093Z,11.02
2023-04-16T11:36:46.084Z,12.02
2023-04-16T11:39:12.770Z,33.90
2023-04-16T11:41:42.860Z,14.52
2023-04-16T11:44:18.649Z,14.38
2023-04-16T11:46:45.142Z,12.88
2023-04-16T11:49:12.949Z,12.93
2023-04-16T11:51:46.876Z,13.85
2023-04-16T11:54:21.819Z,18.65
2023-04-16T11:56:49.739Z,15.77
2023-04-16T11:59:17.826Z,15.07
2023-04-16T12:01:53.233Z,17.33
2023-04-16T12:04:22.728Z,16.85
2023-04-16T12:07:27.664Z,15.50
2023-04-16T12:10:08.329Z,14.02
2023-04-16T12:12:38.151Z,15.45
2023-04-16T12:15:06.365Z,10.75
2023-04-16T12:17:35.619Z,11.55
2023-04-16T12:20:24.144Z,14.88
2023-04-16T12:22:53.616Z,11.70
2023-04-16T12:25:25.888Z,10.63
2023-04-16T12:30:22.445Z,10.27
2023-04-16T12:32:49.896Z,11.73
2023-04-16T12:35:34.650Z,11.55
2023-04-16T12:38:05.508Z,10.13
2023-04-16T12:40:35.841Z,11.45
2023-04-16T12:43:03.570Z,10.00
2023-04-16T12:45:30.586Z,10.18
2023-04-16T12:48:03.184Z,9.27
2023-04-16T12:52:59.697Z,10.35
2023-04-16T12:55:26.104Z,10.90
2023-04-16T12:57:56.400Z,10.80
2023-04-16T13:00:27.445Z,10.87
2023-04-16T13:02:54.966Z,11.45
2023-04-16T13:05:21.455Z,11.55
2023-04-16T13:07:49.208Z,12.23
2023-04-16T13:10:16.938Z,11.20
2023-04-16T13:12:43.355Z,12.73
2023-04-16T13:15:13.437Z,11.88
2023-04-16T13:17:40.788Z,12.75
2023-04-16T13:20:09.007Z,12.80
2023-04-16T13:22:35.851Z,14.13
2023-04-16T13:25:02.280Z,11.93
2023-04-16T13:27:28.697Z,12.02
2023-04-16T13:29:55.140Z,12.20
2023-04-16T13:32:21.566Z,12.40
2023-04-16T13:34:47.973Z,12.77
2023-04-16T13:37:14.439Z,11.27
2023-04-16T13:39:41.018Z,9.73
2023-04-16T13:42:07.439Z,11.52
2023-04-16T13:44:35.166Z,10.35
2023-04-16T13:47:01.788Z,10.00
2023-04-16T13:49:28.272Z,10.85
2023-04-16T13:51:54.644Z,10.32
2023-04-16T13:54:21.128Z,10.52
2023-04-16T13:56:47.620Z,11.13
2023-04-16T13:59:15.702Z,10.23
2023-04-16T14:01:42.102Z,9.55
2023-04-16T14:04:08.610Z,8.88
2023-04-16T14:06:35.023Z,9.43
2023-04-16T14:09:01.850Z,9.13
2023-04-16T14:11:28.457Z,9.25
2023-04-16T14:13:54.800Z,8.82
2023-04-16T14:16:21.181Z,10.68
2023-04-16T14:18:47.564Z,8.88
2023-04-16T14:21:13.953Z,9.90
2023-04-16T14:23:40.315Z,9.88
2023-04-16T14:26:06.654Z,8.38
2023-04-16T14:28:33.034Z,10.35
2023-04-16T14:30:59.372Z,10.43
2023-04-16T14:33:25.981Z,9.13
2023-04-16T14:35:52.393Z,9.30
2023-04-16T14:38:18.888Z,9.25
2023-04-16T14:40:45.442Z,10.63
2023-04-16T14:43:11.795Z,11.50
2023-04-16T14:45:38.265Z,10.93
2023-04-16T14:48:05.247Z,11.55
2023-04-16T14:50:31.770Z,9.00
2023-04-16T14:52:58.144Z,9.65
2023-04-16T14:55:24.501Z,10.80
2023-04-16T14:57:51.198Z,10.55
2023-04-16T15:00:18.688Z,10.02
2023-04-16T15:02:47.093Z,10.38
2023-04-16T15:05:13.871Z,10.25
2023-04-16T15:07:40.333Z,9.55
2023-04-16T15:10:07.598Z,9.23
2023-04-16T15:12:34.151Z,10.18
2023-04-16T15:15:00.730Z,9.77
2023-04-16T15:17:27.088Z,10.95
2023-04-16T15:19:53.548Z,12.63
2023-04-16T15:22:19.983Z,11.18
2023-04-16T15:24:46.326Z,9.38
2023-04-16T15:27:14.555Z,9.25
2023-04-16T15:29:41.022Z,10.57
2023-04-16T15:32:07.448Z,9.73
2023-04-16T15:34:33.838Z,12.52
2023-04-16T15:37:00.330Z,11.00
2023-04-16T15:39:26.637Z,12.32
2023-04-16T15:42:01.175Z,11.80
2023-04-16T15:44:28.146Z,11.85
2023-04-16T15:46:54.478Z,11.73
2023-04-16T15:49:20.897Z,10.57
2023-04-16T15:51:47.238Z,9.57
2023-04-16T15:54:13.586Z,12.02
2023-04-16T15:56:40.197Z,13.48
2023-04-16T15:59:06.545Z,11.48
2023-04-16T16:01:32.929Z,12.23
2023-04-16T16:04:06.440Z,12.43
2023-04-16T16:06:32.908Z,11.98
2023-04-16T16:08:59.359Z,12.65
2023-04-16T16:11:26.180Z,11.65
2023-04-16T16:13:52.640Z,13.63
2023-04-16T16:16:19.517Z,14.00
2023-04-16T16:18:45.961Z,12.40
2023-04-16T16:21:12.350Z,13.35
2023-04-16T16:23:38.735Z,12.55
2023-04-16T16:26:06.218Z,13.18
2023-04-16T16:28:32.582Z,15.90
2023-04-16T16:31:01.142Z,12.10
2023-04-16T16:33:28.709Z,13.13
2023-04-16T16:35:55.226Z,14.23
2023-04-16T16:38:21.594Z,14.30
2023-04-16T16:40:47.963Z,13.32
2023-04-16T16:43:14.396Z,13.32
2023-04-16T16:45:40.780Z,13.98
2023-04-16T16:48:07.475Z,13.55
2023-04-16T16:50:33.932Z,12.68
2023-04-16T16:53:00.417Z,13.02
2023-04-16T16:55:26.870Z,13.70
2023-04-16T16:57:53.241Z,14.50
2023-04-16T17:00:21.328Z,13.85
2023-04-16T17:02:48.437Z,11.77
2023-04-16T17:05:15.038Z,14.57
2023-04-16T17:07:41.473Z,14.93
2023-04-16T17:10:08.240Z,13.70
2023-04-16T17:12:35.613Z,13.13
2023-04-16T17:15:02.023Z,14.57
2023-04-16T17:17:29.179Z,13.38
2023-04-16T17:19:55.669Z,14.75
2023-04-16T17:22:22.166Z,13.25
2023-04-16T17:24:48.533Z,13.93
2023-04-16T17:27:14.898Z,14.68
2023-04-16T17:29:41.286Z,13.32
2023-04-16T17:32:07.736Z,13.55
2023-04-16T17:34:34.584Z,13.77
2023-04-16T17:37:01.011Z,13.68
2023-04-16T17:39:27.373Z,13.05
2023-04-16T17:41:57.244Z,14.40
2023-04-16T17:44:25.576Z,14.90
2023-04-16T17:46:52.249Z,14.00
2023-04-16T17:49:18.794Z,14.85
2023-04-16T17:51:48.530Z,15.73
2023-04-16T17:54:14.857Z,15.27
2023-04-16T17:56:41.356Z,15.52
2023-04-16T17:59:07.840Z,15.15
2023-04-16T18:01:36.062Z,15.55
2023-04-16T18:04:06.026Z,15.15
2023-04-16T18:06:32.685Z,16.85
2023-04-16T18:08:59.037Z,15.68
2023-04-16T18:11:25.386Z,17.02
2023-04-16T18:13:53.699Z,17.10
2023-04-16T18:16:20.665Z,17.85
2023-04-16T18:18:50.225Z,18.13
2023-04-16T18:21:17.721Z,18.30
2023-04-16T18:23:44.083Z,19.30
2023-04-16T18:26:11.164Z,17.45
2023-04-16T18:28:37.826Z,19.00
2023-04-16T18:31:06.598Z,20.33
2023-04-16T18:36:02.642Z,19.45
2023-04-16T18:38:32.259Z,18.73
2023-04-16T18:40:59.162Z,19.10
2023-04-16T18:43:25.696Z,20.98
2023-04-16T18:45:52.367Z,21.13
2023-04-16T18:48:19.309Z,18.45
2023-04-16T18:50:46.387Z,21.58
2023-04-16T18:53:12.828Z,19.77
2023-04-16T18:55:40.267Z,20.25
2023-04-16T18:58:06.844Z,20.75
2023-04-16T19:00:33.361Z,20.75
2023-04-16T19:03:00.223Z,21.67
2023-04-16T19:05:26.579Z,21.52
2023-04-16T19:08:01.749Z,21.40
2023-04-16T19:10:28.202Z,20.80
2023-04-16T19:12:56.332Z,16.83
2023-04-16T19:15:22.722Z,19.77
2023-04-16T19:17:49.138Z,20.25
2023-04-16T19:20:15.560Z,19.40
2023-04-16T19:22:47.932Z,19.48
2023-04-16T19:25:14.370Z,19.83
2023-04-16T19:27:40.935Z,18.38
2023-04-16T19:30:07.613Z,18.05
2023-04-16T19:32:34.117Z,20.60
2023-04-16T19:35:02.385Z,19.75
2023-04-16T19:37:31.502Z,20.48
2023-04-16T19:39:57.819Z,20.92
2023-04-16T19:42:24.208Z,21.23
2023-04-16T19:44:50.685Z,20.73
2023-04-16T19:47:16.999Z,20.15
2023-04-16T19:49:43.739Z,19.95
2023-04-16T19:52:10.049Z,19.88
2023-04-16T19:54:37.574Z,22.40
2023-04-16T19:57:04.230Z,20.52
2023-04-16T19:59:32.190Z,21.48
2023-04-16T20:01:59.728Z,20.23
2023-04-16T20:04:26.362Z,22.90
2023-04-16T20:06:53.012Z,20.92
2023-04-16T20:09:20.174Z,20.88
2023-04-16T20:11:46.999Z,22.75
2023-04-16T20:14:13.366Z,21.65
2023-04-16T20:16:43.912Z,23.35
2023-04-16T20:19:10.970Z,21.17
2023-04-16T20:21:37.848Z,23.65
2023-04-16T20:24:04.327Z,24.33
2023-04-16T20:26:45.161Z,23.67
2023-04-16T20:29:11.762Z,22.23
2023-04-16T20:31:38.162Z,24.80
2023-04-16T20:34:04.680Z,24.90
2023-04-16T20:36:32.818Z,22.60
2023-04-16T20:38:59.860Z,26.42
2023-04-16T20:41:27.267Z,27.13
2023-04-16T20:43:53.920Z,29.27
2023-04-16T20:46:24.132Z,27.02
2023-04-16T20:48:51.890Z,25.88
2023-04-16T20:51:22.958Z,26.77
2023-04-16T20:53:51.975Z,27.95
2023-04-16T20:56:18.380Z,27.23
2023-04-16T20:58:44.733Z,28.17
2023-04-16T21:01:11.934Z,28.42
2023-04-16T21:03:40.132Z,26.67
2023-04-16T21:06:06.798Z,27.02
2023-04-16T21:08:33.658Z,26.88
2023-04-16T21:11:00.049Z,27.17
2023-04-16T21:13:26.434Z,26.48
2023-04-16T21:15:52.950Z,25.95
2023-04-16T21:18:21.521Z,22.48
2023-04-16T21:20:49.095Z,23.42
2023-04-16T21:23:15.530Z,21.50
2023-04-16T21:25:42.168Z,22.60
2023-04-16T21:28:08.603Z,24.85
2023-04-16T21:30:35.012Z,23.20
2023-04-16T21:33:01.471Z,25.15
2023-04-16T21:35:27.997Z,24.05
2023-04-16T21:37:54.325Z,24.58
2023-04-16T21:40:20.732Z,23.88
2023-04-16T21:42:47.118Z,21.88
2023-04-16T21:45:14.451Z,25.02
2023-04-16T21:47:41.030Z,23.17
2023-04-16T21:50:07.824Z,25.17
2023-04-16T21:52:40.060Z,25.17
2023-04-16T21:55:08.116Z,25.05
2023-04-16T21:57:34.487Z,26.08
2023-04-16T22:00:00.959Z,24.77
2023-04-16T22:02:27.448Z,26.52
2023-04-16T22:04:54.051Z,27.65
2023-04-16T22:07:20.636Z,25.70
2023-04-16T22:09:46.998Z,24.35
2023-04-16T22:12:13.382Z,29.42
2023-04-16T22:14:46.239Z,22.35
2023-04-16T22:17:22.205Z,25.67
2023-04-16T22:19:49.328Z,23.08
2023-04-16T22:22:16.218Z,24.58
2023-04-16T22:24:42.636Z,24.05
2023-04-16T22:27:08.972Z,25.83
2023-04-16T22:29:35.374Z,23.52
2023-04-16T22:32:02.029Z,29.92
2023-04-16T22:34:28.485Z,31.98
2023-04-16T22:36:54.859Z,29.90
2023-04-16T22:39:21.439Z,31.52
2023-04-16T22:41:47.861Z,30.20
2023-04-16T22:44:14.216Z,31.77
2023-04-16T22:46:40.781Z,26.42
2023-04-16T22:49:07.144Z,30.42
2023-04-16T22:51:34.167Z,31.13
2023-04-16T22:54:00.591Z,31.88
2023-04-16T22:56:28.909Z,28.67
2023-04-16T22:58:55.474Z,32.50
2023-04-16T23:01:21.858Z,33.42
2023-04-16T23:03:48.494Z,32.83
2023-04-16T23:06:15.616Z,30.35
2023-04-16T23:08:41.980Z,27.10
2023-04-16T23:11:08.399Z,25.63
2023-04-16T23:13:34.762Z,32.78
2023-04-16T23:16:01.084Z,31.38
2023-04-16T23:18:27.495Z,32.08
2023-04-16T23:20:53.863Z,33.22
2023-04-16T23:23:20.351Z,31.92
2023-04-16T23:25:46.708Z,33.50
2023-04-16T23:28:13.108Z,33.33
2023-04-16T23:30:39.546Z,33.65
2023-04-16T23:33:05.945Z,33.33
2023-04-16T23:35:32.333Z,30.77
2023-04-16T23:37:58.791Z,33.90
2023-04-16T23:40:25.595Z,33.63
2023-04-16T23:42:51.947Z,35.15
2023-04-16T23:45:18.331Z,35.22
2023-04-16T23:47:47.321Z,36.97
2023-04-16T23:50:13.766Z,34.13
2023-04-16T23:52:40.289Z,35.33
2023-04-16T23:55:06.796Z,33.28
2023-04-16T23:57:33.157Z,32.72
2023-04-16T23:59:59.556Z,32.22
